createdAt,value
2024-03-11T00:01:09.308Z,18.60
2024-03-11T00:03:45.950Z,18.20
2024-03-11T00:06:16.932Z,19.40
2024-03-11T00:09:21.121Z,19.00
2024-03-11T00:12:15.955Z,19.40
2024-03-11T00:15:08.318Z,17.60
2024-03-11T00:17:59.535Z,18.30
2024-03-11T00:20:28.045Z,28.50
2024-03-11T00:23:02.325Z,23.50
2024-03-11T00:25:34.214Z,21.30
2024-03-11T00:28:13.252Z,22.50
2024-03-11T00:30:42.118Z,19.80
2024-03-11T00:33:29.556Z,24.40
2024-03-11T00:36:17.986Z,25.40
2024-03-11T00:38:51.158Z,26.50
2024-03-11T00:41:39.660Z,30.30
2024-03-11T00:44:13.333Z,31.40
2024-03-11T00:46:47.183Z,26.90
2024-03-11T00:49:20.868Z,28.50
2024-03-11T00:51:50.146Z,29.40
2024-03-11T00:54:23.257Z,27.10
2024-03-11T00:57:36.598Z,24.90
2024-03-11T01:00:29.423Z,24.00
2024-03-11T01:03:02.332Z,27.20
2024-03-11T01:05:40.628Z,25.80
2024-03-11T01:08:35.322Z,27.20
2024-03-11T01:11:29.180Z,23.40
2024-03-11T01:14:20.642Z,24.80
2024-03-11T01:17:34.922Z,24.90
2024-03-11T01:20:30.539Z,24.50
2024-03-11T01:22:59.180Z,25.50
2024-03-11T01:25:27.628Z,22.40
2024-03-11T01:27:56.085Z,23.60
2024-03-11T01:30:25.651Z,24.90
2024-03-11T01:32:54.182Z,22.50
2024-03-11T01:35:26.473Z,23.00
2024-03-11T01:37:54.807Z,21.30
2024-03-11T01:40:23.331Z,24.10
2024-03-11T01:42:51.916Z,23.30
2024-03-11T01:45:20.240Z,24.30
2024-03-11T01:47:49.192Z,24.10
2024-03-11T01:50:18.470Z,26.10
2024-03-11T01:52:57.531Z,25.00
2024-03-11T01:55:26.731Z,21.70
2024-03-11T01:57:56.698Z,24.30
2024-03-11T02:00:25.211Z,25.10
2024-03-11T02:02:55.959Z,27.50
2024-03-11T02:05:27.453Z,22.20
2024-03-11T02:08:00.820Z,18.60
2024-03-11T02:13:00.521Z,18.80
2024-03-11T02:16:09.664Z,23.00
2024-03-11T02:18:40.895Z,24.20
2024-03-11T02:21:14.042Z,25.50
2024-03-11T02:23:49.686Z,23.00
2024-03-11T02:26:35.901Z,21.90
2024-03-11T02:29:07.156Z,19.90
2024-03-11T02:31:58.133Z,22.50
2024-03-11T02:34:32.981Z,25.40
2024-03-11T02:37:15.698Z,21.60
2024-03-11T02:40:40.332Z,25.90
2024-03-11T02:43:11.497Z,26.10
2024-03-11T02:45:43.107Z,24.30
2024-03-11T02:48:12.364Z,22.80
2024-03-11T02:50:53.071Z,20.50
2024-03-11T02:53:25.033Z,23.80
2024-03-11T02:55:57.122Z,23.40
2024-03-11T02:58:25.435Z,20.70
2024-03-11T03:00:57.501Z,27.10
2024-03-11T03:03:33.947Z,19.60
2024-03-11T03:06:02.656Z,19.80
2024-03-11T03:08:31.125Z,22.00
2024-03-11T03:11:04.186Z,20.00
2024-03-11T03:13:32.404Z,21.70
2024-03-11T03:16:03.905Z,20.20
2024-03-11T03:18:32.394Z,21.80
2024-03-11T03:21:23.188Z,18.80
2024-03-11T03:23:57.093Z,18.90
2024-03-11T03:26:30.934Z,21.30
2024-03-11T03:29:05.234Z,18.90
2024-03-11T03:31:38.142Z,19.80
2024-03-11T03:34:12.061Z,18.90
2024-03-11T03:36:40.536Z,16.10
2024-03-11T03:39:09.519Z,18.50
2024-03-11T03:41:37.858Z,18.80
2024-03-11T03:44:08.422Z,17.40
2024-03-11T03:46:57.155Z,17.40
2024-03-11T03:49:25.502Z,18.10
2024-03-11T03:51:54.165Z,21.90
2024-03-11T03:54:32.605Z,18.00
2024-03-11T03:57:00.776Z,17.70
2024-03-11T03:59:29.633Z,19.50
2024-03-11T04:02:02.946Z,17.10
2024-03-11T04:04:33.602Z,20.10
2024-03-11T04:07:02.123Z,16.80
2024-03-11T04:09:36.430Z,17.20
2024-03-11T04:12:08.103Z,19.00
2024-03-11T04:14:59.804Z,21.00
2024-03-11T04:17:46.290Z,17.60
2024-03-11T04:20:24.604Z,19.70
2024-03-11T04:23:28.864Z,22.90
2024-03-11T04:26:01.394Z,17.70
2024-03-11T04:28:34.822Z,19.30
2024-03-11T04:31:16.833Z,17.10
2024-03-11T04:34:12.095Z,17.30
2024-03-11T04:36:43.807Z,19.50
2024-03-11T04:39:17.454Z,16.40
2024-03-11T04:42:09.099Z,17.80
2024-03-11T04:44:46.855Z,17.50
2024-03-11T04:47:27.519Z,18.70
2024-03-11T04:50:45.401Z,22.50
2024-03-11T04:53:42.302Z,20.80
2024-03-11T04:56:10.761Z,20.50
2024-03-11T04:58:41.363Z,18.50
2024-03-11T05:01:19.680Z,24.40
2024-03-11T05:03:48.132Z,26.70
2024-03-11T05:06:40.386Z,20.40
2024-03-11T05:09:28.704Z,22.20
2024-03-11T05:12:02.495Z,20.60
2024-03-11T05:14:31.104Z,21.10
2024-03-11T05:17:04.365Z,20.00
2024-03-11T05:19:40.941Z,17.60
2024-03-11T05:22:34.948Z,22.20
2024-03-11T05:25:23.709Z,18.80
2024-03-11T05:28:27.542Z,21.40
2024-03-11T05:31:00.946Z,19.30
2024-03-11T05:34:18.675Z,18.30
2024-03-11T05:37:24.939Z,22.70
2024-03-11T05:40:12.705Z,22.20
2024-03-11T05:43:09.628Z,22.80
2024-03-11T05:45:43.675Z,21.80
2024-03-11T05:48:19.948Z,23.30
2024-03-11T05:51:16.101Z,22.30
2024-03-11T05:54:01.722Z,21.50
2024-03-11T05:56:54.462Z,29.00
2024-03-11T05:59:28.873Z,21.60
2024-03-11T06:02:00.272Z,19.90
2024-03-11T06:05:06.565Z,21.20
2024-03-11T06:07:45.687Z,22.20
2024-03-11T06:10:22.926Z,25.10
2024-03-11T06:18:11.573Z,24.30
2024-03-11T06:20:40.317Z,23.30
2024-03-11T06:23:08.969Z,25.40
2024-03-11T06:25:37.343Z,26.20
2024-03-11T06:28:06.382Z,23.50
2024-03-11T06:30:35.335Z,25.00
2024-03-11T06:33:05.875Z,26.60
2024-03-11T06:35:39.395Z,23.10
2024-03-11T06:38:08.029Z,23.80
2024-03-11T06:40:36.588Z,21.00
2024-03-11T06:43:04.990Z,27.30
2024-03-11T06:45:33.305Z,26.30
2024-03-11T06:48:01.701Z,24.40
2024-03-11T06:50:30.106Z,24.40
2024-03-11T06:52:58.502Z,23.40
2024-03-11T06:55:26.712Z,25.80
2024-03-11T06:57:54.999Z,23.60
2024-03-11T07:00:26.346Z,25.30
2024-03-11T07:02:57.550Z,22.90
2024-03-11T07:05:28.972Z,24.10
2024-03-11T07:07:58.074Z,27.10
2024-03-11T07:10:26.784Z,29.40
2024-03-11T07:12:55.113Z,25.20
2024-03-11T07:15:26.340Z,26.50
2024-03-11T07:17:54.560Z,26.80
2024-03-11T07:20:25.199Z,25.40
2024-03-11T07:22:53.998Z,25.80
2024-03-11T07:25:22.872Z,26.70
2024-03-11T07:27:56.729Z,25.40
2024-03-11T07:30:25.628Z,22.40
2024-03-11T07:33:27.630Z,27.00
2024-03-11T07:35:58.794Z,25.90
2024-03-11T07:38:30.262Z,22.40
2024-03-11T07:41:01.616Z,26.10
2024-03-11T07:43:30.057Z,27.00
2024-03-11T07:45:58.559Z,28.90
2024-03-11T07:48:29.393Z,25.00
2024-03-11T07:51:00.056Z,24.30
2024-03-11T07:53:28.524Z,23.20
2024-03-11T07:55:58.899Z,25.50
2024-03-11T07:58:30.870Z,25.00
2024-03-11T08:01:00.325Z,26.40
2024-03-11T08:03:28.914Z,28.50
2024-03-11T08:06:02.196Z,26.70
2024-03-11T08:10:59.287Z,22.80
2024-03-11T08:13:27.625Z,23.40
2024-03-11T08:15:56.664Z,23.20
2024-03-11T08:18:28.163Z,26.80
2024-03-11T08:20:59.238Z,23.10
2024-03-11T08:23:27.778Z,22.80
2024-03-11T08:26:18.425Z,28.40
2024-03-11T08:28:52.702Z,25.40
2024-03-11T08:31:22.162Z,25.70
2024-03-11T08:33:50.722Z,26.50
2024-03-11T08:36:19.260Z,24.90
2024-03-11T08:38:58.709Z,23.70
2024-03-11T08:41:29.934Z,28.80
2024-03-11T08:44:03.970Z,25.50
2024-03-11T08:46:33.394Z,25.40
2024-03-11T08:49:02.106Z,26.20
2024-03-11T08:51:30.525Z,32.10
2024-03-11T08:54:01.259Z,27.30
2024-03-11T08:56:29.567Z,26.90
2024-03-11T08:58:58.971Z,24.60
2024-03-11T09:01:30.744Z,26.30
2024-03-11T09:03:59.204Z,27.90
2024-03-11T09:06:28.073Z,30.20
2024-03-11T09:08:58.021Z,28.60
2024-03-11T09:11:28.079Z,31.30
2024-03-11T09:13:58.659Z,28.20
2024-03-11T09:16:29.098Z,28.80
2024-03-11T09:18:57.784Z,29.50
2024-03-11T09:21:27.339Z,25.30
2024-03-11T09:23:55.716Z,27.10
2024-03-11T09:26:24.946Z,29.80
2024-03-11T09:28:56.134Z,28.60
2024-03-11T09:31:27.494Z,26.30
2024-03-11T09:33:56.729Z,31.10
2024-03-11T09:36:25.331Z,26.40
2024-03-11T09:39:03.613Z,29.30
2024-03-11T09:42:01.725Z,28.00
2024-03-11T09:45:13.697Z,25.50
2024-03-11T09:47:54.026Z,23.40
2024-03-11T09:50:32.500Z,31.70
2024-03-11T09:53:15.435Z,25.10
2024-03-11T09:55:49.497Z,26.80
2024-03-11T09:58:21.958Z,28.30
2024-03-11T10:00:57.493Z,27.00
2024-03-11T10:03:47.330Z,25.40
2024-03-11T10:06:17.002Z,26.60
2024-03-11T10:08:46.785Z,24.30
2024-03-11T10:11:19.359Z,25.90
2024-03-11T10:13:54.541Z,21.30
2024-03-11T10:16:26.669Z,25.90
2024-03-11T10:19:04.382Z,25.60
2024-03-11T10:21:36.300Z,23.60
2024-03-11T10:24:06.977Z,24.00
2024-03-11T10:26:41.938Z,24.20
2024-03-11T10:29:13.402Z,23.00
2024-03-11T10:31:46.787Z,30.80
2024-03-11T10:34:25.704Z,27.20
2024-03-11T10:37:01.947Z,23.90
2024-03-11T10:39:42.696Z,24.60
2024-03-11T10:42:16.882Z,28.90
2024-03-11T10:44:49.266Z,20.90
2024-03-11T10:47:23.699Z,27.70
2024-03-11T10:50:16.044Z,25.70
2024-03-11T10:52:49.924Z,23.80
2024-03-11T10:55:23.254Z,25.10
2024-03-11T10:57:57.774Z,21.60
2024-03-11T11:00:27.778Z,23.10
2024-03-11T11:03:09.398Z,21.10
2024-03-11T11:06:02.397Z,23.50
2024-03-11T11:08:33.989Z,23.40
2024-03-11T11:11:05.868Z,23.60
2024-03-11T11:14:15.263Z,25.80
2024-03-11T11:16:46.489Z,19.90
2024-03-11T11:19:23.812Z,20.80
2024-03-11T11:21:54.700Z,19.60
2024-03-11T11:24:32.572Z,21.30
2024-03-11T11:27:07.770Z,23.20
2024-03-11T11:30:18.394Z,21.60
2024-03-11T11:32:50.783Z,20.10
2024-03-11T11:35:37.170Z,21.90
2024-03-11T11:38:29.183Z,16.60
2024-03-11T11:40:59.700Z,20.30
2024-03-11T11:43:47.541Z,25.40
2024-03-11T11:46:53.058Z,20.90
2024-03-11T11:49:25.519Z,23.10
2024-03-11T11:51:53.970Z,18.60
2024-03-11T11:54:35.626Z,24.20
2024-03-11T11:57:17.796Z,25.20
2024-03-11T12:00:03.154Z,20.50
2024-03-11T12:02:37.231Z,21.90
2024-03-11T12:05:10.280Z,22.50
2024-03-11T12:10:12.425Z,17.00
2024-03-11T12:12:49.960Z,23.30
2024-03-11T12:15:21.453Z,18.90
2024-03-11T12:17:55.956Z,24.00
2024-03-11T12:20:33.292Z,21.30
2024-03-11T12:23:03.534Z,20.20
2024-03-11T12:25:34.153Z,19.30
2024-03-11T12:28:08.754Z,20.20
2024-03-11T12:30:40.420Z,25.60
2024-03-11T12:33:15.807Z,18.10
2024-03-11T12:35:46.341Z,19.40
2024-03-11T12:38:15.797Z,21.60
2024-03-11T12:40:46.233Z,23.20
2024-03-11T12:43:21.600Z,18.80
2024-03-11T12:45:54.896Z,18.90
2024-03-11T12:48:25.344Z,25.80
2024-03-11T12:50:58.013Z,19.10
2024-03-11T12:53:29.044Z,18.20
2024-03-11T12:56:08.169Z,27.80
2024-03-11T13:01:36.736Z,18.40
2024-03-11T13:04:25.082Z,19.00
2024-03-11T13:06:59.693Z,18.00
2024-03-11T13:09:37.059Z,18.00
2024-03-11T13:12:30.025Z,17.70
2024-03-11T13:14:59.411Z,16.70
2024-03-11T13:17:33.836Z,16.20
2024-03-11T13:20:07.520Z,19.70
2024-03-11T13:22:37.570Z,17.60
2024-03-11T13:25:11.468Z,18.00
2024-03-11T13:28:07.566Z,19.90
2024-03-11T13:30:49.103Z,17.40
2024-03-11T13:33:22.375Z,17.50
2024-03-11T13:35:54.793Z,23.40
2024-03-11T13:38:23.522Z,15.60
2024-03-11T13:40:55.096Z,19.20
2024-03-11T13:43:24.846Z,18.90
2024-03-11T13:45:55.542Z,13.80
2024-03-11T13:48:26.957Z,15.80
2024-03-11T13:51:00.281Z,18.20
2024-03-11T13:53:29.893Z,16.50
2024-03-11T13:56:01.704Z,18.80
2024-03-11T13:58:31.335Z,20.00
2024-03-11T14:01:00.012Z,18.50
2024-03-11T14:03:29.330Z,26.20
2024-03-11T14:05:58.558Z,17.80
2024-03-11T14:08:28.415Z,18.30
2024-03-11T14:10:57.879Z,21.80
2024-03-11T14:13:26.275Z,17.20
2024-03-11T14:15:55.816Z,17.60
2024-03-11T14:18:25.832Z,20.00
2024-03-11T14:20:54.453Z,18.40
2024-03-11T14:23:23.010Z,18.50
2024-03-11T14:25:53.059Z,17.50
2024-03-11T14:28:21.699Z,17.30
2024-03-11T14:30:49.934Z,14.70
2024-03-11T14:33:18.188Z,18.70
2024-03-11T14:35:47.931Z,19.70
2024-03-11T14:38:16.425Z,17.40
2024-03-11T14:40:45.826Z,15.80
2024-03-11T14:43:14.945Z,23.30
2024-03-11T14:45:45.825Z,17.40
2024-03-11T14:48:16.009Z,19.80
2024-03-11T14:50:47.302Z,17.90
2024-03-11T14:53:16.086Z,18.60
2024-03-11T14:55:47.066Z,20.40
2024-03-11T14:58:20.684Z,22.90
2024-03-11T15:00:55.893Z,19.80
2024-03-11T15:03:28.224Z,17.40
2024-03-11T15:06:00.425Z,18.00
2024-03-11T15:08:29.946Z,20.90
2024-03-11T15:10:58.450Z,21.90
2024-03-11T15:13:29.002Z,19.70
2024-03-11T15:15:58.213Z,18.10
2024-03-11T15:18:28.305Z,15.90
2024-03-11T15:20:57.515Z,19.60
2024-03-11T15:23:30.038Z,23.70
2024-03-11T15:25:58.409Z,22.50
2024-03-11T15:28:27.088Z,22.10
2024-03-11T15:30:56.645Z,17.70
2024-03-11T15:33:25.556Z,17.20
2024-03-11T15:35:54.310Z,21.50
2024-03-11T15:38:23.157Z,17.80
2024-03-11T15:40:52.109Z,23.00
2024-03-11T15:43:21.211Z,21.80
2024-03-11T15:45:50.943Z,21.50
2024-03-11T15:48:20.200Z,20.00
2024-03-11T15:50:50.533Z,20.60
2024-03-11T15:53:19.330Z,16.80
2024-03-11T15:55:48.361Z,14.60
2024-03-11T15:58:16.925Z,18.60
2024-03-11T16:00:46.156Z,21.80
2024-03-11T16:03:15.745Z,18.00
2024-03-11T16:05:46.265Z,14.10
2024-03-11T16:08:17.205Z,16.70
2024-03-11T16:10:47.615Z,21.40
2024-03-11T16:13:16.178Z,19.40
2024-03-11T16:15:44.960Z,18.10
2024-03-11T16:18:14.426Z,16.50
2024-03-11T16:20:43.671Z,18.00
2024-03-11T16:23:15.196Z,24.40
2024-03-11T16:25:45.680Z,30.60
2024-03-11T16:28:21.876Z,18.40
2024-03-11T16:30:50.429Z,21.40
2024-03-11T16:33:26.552Z,21.60
2024-03-11T16:35:56.087Z,20.30
2024-03-11T16:38:24.884Z,17.40
2024-03-11T16:40:53.351Z,24.00
2024-03-11T16:43:21.748Z,21.30
2024-03-11T16:45:53.717Z,25.70
2024-03-11T16:48:26.998Z,23.70
2024-03-11T16:53:25.426Z,22.70
2024-03-11T16:55:55.400Z,22.60
2024-03-11T16:58:27.227Z,26.60
2024-03-11T17:00:56.599Z,24.60
2024-03-11T17:03:25.488Z,25.60
2024-03-11T17:05:56.906Z,28.90
2024-03-11T17:08:28.937Z,26.10
2024-03-11T17:11:02.100Z,20.10
2024-03-11T17:13:34.820Z,26.40
2024-03-11T17:16:09.507Z,29.40
2024-03-11T17:18:41.997Z,25.40
2024-03-11T17:21:33.315Z,31.30
2024-03-11T17:24:06.454Z,24.60
2024-03-11T17:26:34.995Z,29.90
2024-03-11T17:29:08.245Z,29.20
2024-03-11T17:31:58.707Z,21.00
2024-03-11T17:34:29.452Z,23.20
2024-03-11T17:37:15.864Z,28.70
2024-03-11T17:39:44.798Z,26.50
2024-03-11T17:42:19.272Z,26.40
2024-03-11T17:44:52.822Z,30.80
2024-03-11T17:47:41.773Z,27.20
2024-03-11T17:50:14.752Z,29.00
2024-03-11T17:52:49.238Z,34.30
2024-03-11T17:55:21.350Z,29.20
2024-03-11T17:57:51.895Z,24.70
2024-03-11T18:00:25.889Z,28.70
2024-03-11T18:02:57.145Z,26.40
2024-03-11T18:05:33.328Z,24.20
2024-03-11T18:08:05.203Z,26.50
2024-03-11T18:10:35.357Z,26.80
2024-03-11T18:13:11.862Z,23.90
2024-03-11T18:15:43.858Z,27.60
2024-03-11T18:18:14.568Z,25.80
2024-03-11T18:20:43.266Z,26.40
2024-03-11T18:23:14.896Z,26.10
2024-03-11T18:25:52.071Z,24.70
2024-03-11T18:28:23.410Z,22.50
2024-03-11T18:30:52.180Z,24.60
2024-03-11T18:33:21.237Z,29.00
2024-03-11T18:35:49.962Z,27.50
2024-03-11T18:38:18.535Z,28.10
2024-03-11T18:40:48.478Z,28.20
2024-03-11T18:43:17.630Z,26.70
2024-03-11T18:45:47.785Z,24.60
2024-03-11T18:48:16.710Z,26.10
2024-03-11T18:50:45.669Z,27.00
2024-03-11T18:53:14.986Z,28.00
2024-03-11T18:55:43.895Z,24.50
2024-03-11T18:58:15.309Z,27.00
2024-03-11T19:00:43.825Z,24.60
2024-03-11T19:03:16.303Z,28.80
2024-03-11T19:05:45.053Z,22.80
2024-03-11T19:08:13.440Z,25.50
2024-03-11T19:10:41.967Z,27.60
2024-03-11T19:13:10.361Z,32.30
2024-03-11T19:15:41.866Z,28.40
2024-03-11T19:18:10.516Z,27.40
2024-03-11T19:20:41.068Z,27.80
2024-03-11T19:23:11.830Z,25.70
2024-03-11T19:25:43.951Z,28.10
2024-03-11T19:28:13.724Z,27.50
2024-03-11T19:31:00.672Z,28.90
2024-03-11T19:33:33.437Z,27.70
2024-03-11T19:36:02.034Z,29.80
2024-03-11T19:38:58.122Z,29.10
2024-03-11T19:41:58.324Z,24.20
2024-03-11T19:45:02.165Z,24.30
2024-03-11T19:48:11.059Z,31.80
2024-03-11T19:51:19.205Z,27.30
2024-03-11T19:54:19.411Z,28.10
2024-03-11T19:57:19.593Z,28.40
2024-03-11T20:00:27.303Z,22.10
2024-03-11T20:03:22.385Z,26.30
2024-03-11T20:06:30.207Z,20.10
2024-03-11T20:09:50.313Z,27.10
2024-03-11T20:12:56.739Z,23.50
2024-03-11T20:15:50.141Z,25.50
2024-03-11T20:18:43.127Z,25.30
2024-03-11T20:21:51.517Z,26.50
2024-03-11T20:24:52.636Z,21.80
2024-03-11T20:27:42.440Z,21.70
2024-03-11T20:30:20.135Z,25.70
2024-03-11T20:33:04.033Z,20.20
2024-03-11T20:35:33.463Z,23.60
2024-03-11T20:38:04.428Z,21.70
2024-03-11T20:40:38.204Z,27.10
2024-03-11T20:43:10.568Z,25.50
2024-03-11T20:45:41.610Z,23.30
2024-03-11T20:48:13.511Z,25.80
2024-03-11T20:50:50.830Z,24.50
2024-03-11T20:53:21.554Z,21.30
2024-03-11T20:55:50.074Z,24.90
2024-03-11T20:58:21.570Z,22.50
2024-03-11T21:00:50.184Z,23.60
2024-03-11T21:03:18.698Z,24.20
2024-03-11T21:05:51.339Z,24.00
2024-03-11T21:08:22.969Z,22.80
2024-03-11T21:10:51.297Z,22.90
2024-03-11T21:13:19.729Z,23.10
2024-03-11T21:15:48.012Z,22.70
2024-03-11T21:18:21.189Z,21.50
2024-03-11T21:23:42.589Z,20.30
2024-03-11T21:26:22.308Z,22.70
2024-03-11T21:28:50.397Z,21.30
2024-03-11T21:31:18.721Z,23.70
2024-03-11T21:33:46.954Z,20.70
2024-03-11T21:36:15.353Z,21.40
2024-03-11T21:38:45.025Z,21.90
2024-03-11T21:41:13.105Z,23.80
2024-03-11T21:43:41.210Z,22.00
2024-03-11T21:46:10.559Z,22.10
2024-03-11T21:48:38.865Z,21.00
2024-03-11T21:51:07.159Z,21.70
2024-03-11T21:53:36.743Z,19.00
2024-03-11T21:56:07.449Z,22.70
2024-03-11T21:58:35.655Z,23.50
2024-03-11T22:01:06.057Z,23.00
2024-03-11T22:03:34.256Z,20.60
2024-03-11T22:06:02.744Z,23.30
2024-03-11T22:08:30.930Z,21.60
2024-03-11T22:10:58.996Z,18.30
2024-03-11T22:13:27.540Z,22.70
2024-03-11T22:15:55.739Z,18.30
2024-03-11T22:18:25.010Z,21.40
2024-03-11T22:20:54.005Z,20.00
2024-03-11T22:23:22.517Z,21.70
2024-03-11T22:25:50.725Z,22.10
2024-03-11T22:28:19.264Z,18.10
2024-03-11T22:30:47.376Z,21.40
2024-03-11T22:33:15.634Z,18.40
2024-03-11T22:35:45.224Z,18.80
2024-03-11T22:38:13.374Z,21.30
2024-03-11T22:40:42.740Z,20.70
2024-03-11T22:43:11.632Z,18.70
2024-03-11T22:45:40.586Z,19.30
2024-03-11T22:48:10.099Z,15.20
2024-03-11T22:50:38.154Z,17.70
2024-03-11T22:53:06.160Z,18.00
2024-03-11T22:55:34.172Z,19.80
2024-03-11T22:58:02.308Z,19.50
2024-03-11T23:00:50.418Z,15.00
2024-03-11T23:03:21.625Z,18.90
2024-03-11T23:05:50.848Z,21.20
2024-03-11T23:08:22.136Z,18.60
2024-03-11T23:10:50.745Z,16.70
2024-03-11T23:13:19.697Z,18.90
2024-03-11T23:15:47.821Z,17.00
2024-03-11T23:18:17.561Z,16.00
2024-03-11T23:20:47.344Z,20.00
2024-03-11T23:23:15.784Z,17.70
2024-03-11T23:25:43.877Z,18.30
2024-03-11T23:28:11.926Z,17.60
2024-03-11T23:30:42.096Z,17.50
2024-03-11T23:33:10.387Z,15.70
2024-03-11T23:35:38.457Z,17.10
2024-03-11T23:38:08.514Z,16.70
2024-03-11T23:40:37.774Z,18.20
2024-03-11T23:43:06.709Z,17.10
2024-03-11T23:45:40.072Z,19.40
2024-03-11T23:48:16.605Z,14.30
2024-03-11T23:50:46.043Z,19.30
2024-03-11T23:53:14.735Z,15.70
2024-03-11T23:55:43.521Z,15.10
2024-03-11T23:58:13.554Z,14.60
